Time;durP1;ratioP1;P1;durP2;ratioP2;P2;SDS_P1;SDS_P2;PMS_P1;PMS_P2;Temp;Humidity;BMP_temperature;BMP_pressure;BME280_temperature;BME280_humidity;BME280_pressure;Samples;Min_cycle;Max_cycle;Signal;HPM_P1;HPM_P2
2021/12/19 00:00:10;;;;;;;15.17;7.77;;;5.10;99.90;;;3.00;77.06;100772.25;10387963;28;97672;-77
2021/12/19 00:10:16;;;;;;;12.60;7.47;;;4.90;99.90;;;2.99;78.55;100778.44;10379574;28;98120;-77
2021/12/19 00:15:19;;;;;;;14.10;8.20;;;4.90;99.90;;;3.03;79.17;100779.91;10388095;28;96612;-77
2021/12/19 00:20:22;;;;;;;17.13;10.30;;;4.90;99.90;;;3.03;79.23;100789.56;10391774;28;96703;-76
2021/12/19 00:25:45;;;;;;;17.23;9.23;;;4.90;99.90;;;3.00;79.65;100793.25;10383147;28;96590;-77
2021/12/19 00:30:48;;;;;;;19.70;9.60;;;4.90;99.90;;;3.00;79.64;100777.50;10391775;28;97282;-77
2021/12/19 00:35:51;;;;;;;18.60;9.67;;;4.90;99.90;;;2.98;80.61;100775.91;10383898;28;97582;-77
2021/12/19 00:40:54;;;;;;;15.70;9.40;;;4.90;99.90;;;2.95;80.42;100783.06;10394831;28;96571;-76
2021/12/19 00:46:04;;;;;;;17.30;9.60;;;4.80;99.90;;;2.92;81.17;100767.50;10374895;28;96623;-77
2021/12/19 00:51:10;;;;;;;17.23;9.67;;;4.80;99.90;;;2.87;81.21;100766.97;10376675;28;96768;-76
2021/12/19 00:56:14;;;;;;;19.13;9.63;;;4.80;99.90;;;2.84;81.84;100764.59;10381863;28;96572;-77
2021/12/19 01:01:19;;;;;;;18.93;10.30;;;4.80;99.90;;;2.84;82.51;100742.75;10370880;28;97827;-76
2021/12/19 01:06:23;;;;;;;19.93;10.53;;;4.80;99.90;;;2.90;83.04;100723.94;10365454;28;96760;-77
2021/12/19 01:11:27;;;;;;;16.17;8.97;;;4.80;99.90;;;3.00;83.16;100719.75;10379018;27;96540;-79
2021/12/19 01:16:30;;;;;;;19.53;10.97;;;4.80;99.90;;;3.09;83.07;100724.34;10365215;28;96697;-77
2021/12/19 01:21:33;;;;;;;19.07;11.20;;;4.90;99.90;;;3.19;83.21;100711.41;10372893;28;96967;-77
2021/12/19 01:26:36;;;;;;;21.43;11.73;;;5.00;99.90;;;3.27;83.12;100709.06;10372237;28;98656;-77
2021/12/19 01:31:40;;;;;;;20.30;11.00;;;5.10;99.90;;;3.35;82.79;100703.28;10349247;28;96654;-77
2021/12/19 01:36:44;;;;;;;20.40;10.83;;;5.20;99.90;;;3.40;82.88;100691.50;10347515;28;96778;-77
2021/12/19 01:41:57;;;;;;;18.83;11.33;;;5.20;99.90;;;3.43;83.07;100691.28;10381547;28;96503;-77
2021/12/19 01:47:00;;;;;;;23.53;12.77;;;5.30;99.90;;;3.47;83.12;100668.25;10374297;28;96676;-77
2021/12/19 01:52:04;;;;;;;26.47;13.93;;;5.30;99.90;;;3.46;82.99;100645.53;10377102;28;96694;-77
2021/12/19 01:57:07;;;;;;;24.03;13.10;;;5.30;99.90;;;3.45;82.88;100655.22;10364824;28;96579;-77
2021/12/19 02:02:10;;;;;;;22.40;12.60;;;5.30;99.90;;;3.46;83.24;100651.63;10404016;28;97283;-77
2021/12/19 02:07:14;;;;;;;20.83;11.47;;;5.30;99.90;;;3.48;83.34;100649.75;10358673;28;96538;-77
2021/12/19 02:12:17;;;;;;;21.83;12.37;;;5.30;99.90;;;3.50;83.43;100633.88;10352122;28;96567;-78
2021/12/19 02:17:19;;;;;;;17.83;9.73;;;5.40;99.90;;;3.52;83.68;100644.25;10359393;28;96708;-78
2021/12/19 02:22:22;;;;;;;21.60;11.20;;;5.40;99.90;;;3.55;83.53;100634.38;10378147;28;96480;-77
2021/12/19 02:27:28;;;;;;;20.13;10.90;;;5.40;99.90;;;3.59;83.50;100629.72;10341485;28;96601;-77
2021/12/19 02:32:33;;;;;;;18.90;10.83;;;5.40;99.90;;;3.62;83.75;100621.63;10379466;28;98357;-78
2021/12/19 02:48:14;;;;;;;18.03;9.93;;;5.50;99.90;;;3.65;83.40;100587.22;10366967;28;96458;-78
2021/12/19 02:53:36;;;;;;;19.43;10.07;;;5.50;99.90;;;3.69;83.65;100578.16;10360241;28;96603;-78
2021/12/19 02:58:43;;;;;;;15.53;9.57;;;5.50;99.90;;;3.70;83.55;100575.41;10372963;28;96775;-77
2021/12/19 03:03:47;;;;;;;15.23;9.00;;;5.60;99.90;;;3.74;83.54;100549.75;10367483;28;97876;-77
2021/12/19 03:08:51;;;;;;;16.00;9.43;;;5.60;99.90;;;3.74;83.63;100542.69;10385457;28;96618;-77
2021/12/19 03:19:16;;;;;;;18.60;9.82;;;5.60;99.90;;;3.78;83.30;100550.34;10393428;28;96500;-76
2021/12/19 03:24:19;;;;;;;16.20;9.27;;;5.60;99.90;;;3.77;83.09;100549.50;10341684;28;96510;-77
2021/12/19 03:29:21;;;;;;;17.63;10.83;;;5.60;99.90;;;3.78;83.45;100529.31;10378364;28;97775;-77
2021/12/19 03:34:24;;;;;;;19.93;11.03;;;5.60;99.90;;;3.75;83.28;100525.13;10381053;27;96488;-77
2021/12/19 03:39:37;;;;;;;19.03;10.60;;;5.60;99.90;;;3.73;83.31;100511.28;10358589;28;96555;-77
2021/12/19 03:44:40;;;;;;;20.20;10.87;;;5.60;99.90;;;3.72;83.23;100512.25;10375016;28;96436;-77
2021/12/19 03:49:43;;;;;;;21.47;11.93;;;5.60;99.90;;;3.68;83.13;100519.50;10375451;28;96564;-77
2021/12/19 03:54:47;;;;;;;20.33;11.83;;;5.50;99.90;;;3.66;83.20;100517.97;10355737;28;96597;-76
2021/12/19 03:59:51;;;;;;;20.83;12.63;;;5.50;99.90;;;3.62;83.30;100508.63;10373810;28;96943;-77
2021/12/19 04:04:58;;;;;;;22.17;13.43;;;5.50;99.90;;;3.56;83.59;100516.97;10365302;28;97951;-77
2021/12/19 04:10:01;;;;;;;22.73;12.37;;;5.40;99.90;;;3.49;83.36;100501.66;10397587;28;98278;-77
2021/12/19 04:15:08;;;;;;;18.43;11.40;;;5.40;99.90;;;3.47;83.55;100498.28;10361163;28;96614;-77
2021/12/19 04:20:12;;;;;;;19.33;9.87;;;5.30;99.90;;;3.51;83.75;100511.22;10394079;28;98499;-77
2021/12/19 04:25:15;;;;;;;16.23;10.00;;;5.30;99.90;;;3.56;83.54;100490.69;10378298;28;96660;-76
2021/12/19 04:30:22;;;;;;;18.33;9.73;;;5.40;99.90;;;3.62;83.28;100477.09;10343528;28;96765;-77
2021/12/19 04:35:31;;;;;;;15.80;8.80;;;5.40;99.90;;;3.64;82.58;100456.78;10357369;28;96589;-77
2021/12/19 05:17:08;;;;;;;11.07;6.60;;;5.50;99.90;;;3.69;80.77;100404.69;10384510;28;96759;-77
2021/12/19 05:22:11;;;;;;;13.33;8.13;;;5.50;99.90;;;3.70;80.57;100393.22;10350047;28;96546;-77
2021/12/19 05:27:14;;;;;;;12.77;7.53;;;5.50;99.90;;;3.63;80.78;100390.25;10370308;28;96604;-77
2021/12/19 05:32:17;;;;;;;12.37;7.53;;;5.50;99.90;;;3.57;80.87;100380.19;10387716;28;97041;-77
2021/12/19 05:48:03;;;;;;;14.63;7.80;;;5.30;99.90;;;3.37;82.40;100362.53;10382778;28;96721;-77
2021/12/19 05:53:06;;;;;;;13.70;7.33;;;5.20;99.90;;;3.36;82.62;100361.69;10363365;28;96751;-79
2021/12/19 05:58:09;;;;;;;12.87;7.80;;;5.20;99.90;;;3.37;83.04;100373.84;10382417;28;96964;-78
2021/12/19 06:03:12;;;;;;;13.70;7.70;;;5.20;99.90;;;3.37;83.02;100355.47;10389770;28;98056;-78
2021/12/19 06:08:15;;;;;;;11.90;6.90;;;5.20;99.90;;;3.35;83.10;100348.66;10379708;28;96733;-78
2021/12/19 06:13:18;;;;;;;13.17;8.30;;;5.20;99.90;;;3.33;83.58;100335.63;10400345;28;96701;-78
2021/12/19 06:18:21;;;;;;;12.93;7.70;;;5.10;99.90;;;3.35;83.38;100349.47;10369922;28;97747;-77
2021/12/19 06:23:24;;;;;;;13.07;7.97;;;5.20;99.90;;;3.35;83.61;100338.97;10361121;28;96954;-77
2021/12/19 06:28:27;;;;;;;14.47;9.57;;;5.20;99.90;;;3.33;83.86;100347.94;10393871;28;98923;-78
2021/12/19 06:33:30;;;;;;;15.00;8.97;;;5.10;99.90;;;3.31;84.24;100329.69;10382991;28;96474;-78
2021/12/19 06:38:33;;;;;;;13.80;8.20;;;5.10;99.90;;;3.33;84.23;100330.38;10380491;28;97955;-79
2021/12/19 06:43:36;;;;;;;15.13;9.00;;;5.10;99.90;;;3.34;84.32;100318.91;10380114;28;97007;-78
2021/12/19 06:48:39;;;;;;;13.63;7.13;;;5.10;99.90;;;3.37;84.15;100318.69;10371328;28;96959;-78
2021/12/19 06:53:42;;;;;;;19.17;10.20;;;5.10;99.90;;;3.40;84.17;100310.56;10369122;28;97024;-79
2021/12/19 06:58:45;;;;;;;16.97;9.50;;;5.20;99.90;;;3.42;84.52;100313.94;10392805;28;98273;-78
2021/12/19 07:03:48;;;;;;;27.30;14.87;;;5.20;99.90;;;3.47;84.30;100303.88;10375718;28;96641;-78
2021/12/19 07:08:53;;;;;;;9.47;6.50;;;5.30;99.90;;;3.54;84.34;100295.50;10385030;27;96792;-78
2021/12/19 07:13:56;;;;;;;13.83;7.50;;;5.30;99.90;;;3.57;84.05;100285.59;10392575;28;97766;-78
2021/12/19 07:18:59;;;;;;;12.37;7.37;;;5.30;99.90;;;3.57;84.23;100300.53;10375071;28;96990;-77
2021/12/19 07:24:03;;;;;;;11.70;7.87;;;5.30;99.90;;;3.60;84.13;100290.63;10371429;28;96592;-79
2021/12/19 07:29:06;;;;;;;10.37;6.77;;;5.40;99.90;;;3.64;83.91;100276.28;10383204;28;96794;-77
2021/12/19 07:34:09;;;;;;;10.30;6.43;;;5.40;99.90;;;3.72;83.61;100288.81;10357820;28;96509;-77
2021/12/19 07:39:24;;;;;;;10.43;5.43;;;5.50;99.90;;;3.78;83.16;100283.09;10370848;28;96671;-77
2021/12/19 07:44:27;;;;;;;9.37;5.53;;;5.60;99.90;;;3.86;83.43;100271.94;10388425;28;96736;-77
2021/12/19 07:49:30;;;;;;;9.60;5.90;;;5.60;99.90;;;3.91;83.06;100257.47;10413775;28;96838;-77
2021/12/19 07:54:34;;;;;;;9.93;5.80;;;5.70;99.90;;;3.98;82.76;100242.03;10374765;28;96573;-77
2021/12/19 07:59:38;;;;;;;11.67;7.70;;;5.80;99.90;;;4.01;82.76;100223.38;10370299;28;96695;-78
2021/12/19 08:04:40;;;;;;;12.73;6.73;;;5.80;99.90;;;4.03;82.48;100230.19;10361482;28;96758;-78
2021/12/19 08:09:59;;;;;;;14.00;5.70;;;5.80;99.90;;;4.05;82.42;100222.16;10360854;28;98936;-77
2021/12/19 08:15:08;;;;;;;7.07;4.83;;;5.80;99.90;;;4.10;82.34;100219.16;10402681;28;96511;-78
2021/12/19 08:20:11;;;;;;;6.63;4.10;;;5.90;99.90;;;4.17;82.06;100230.84;10377082;28;96641;-77
2021/12/19 08:25:15;;;;;;;13.53;6.37;;;5.90;99.90;;;4.24;81.96;100216.22;10358872;28;96893;-77
2021/12/19 08:30:20;;;;;;;9.53;5.90;;;6.00;99.90;;;4.32;81.60;100197.16;10384041;28;96553;-77
2021/12/19 08:35:23;;;;;;;7.53;5.57;;;6.10;99.90;;;4.36;81.41;100191.53;10369539;28;96644;-78
2021/12/19 08:40:28;;;;;;;8.20;5.33;;;6.10;99.90;;;4.41;81.25;100207.78;10371770;28;96904;-77
2021/12/19 08:45:31;;;;;;;7.90;5.43;;;6.20;99.90;;;4.45;81.37;100200.47;10360597;28;97419;-78
2021/12/19 08:50:34;;;;;;;10.33;6.57;;;6.20;99.90;;;4.49;81.38;100188.69;10386975;28;96914;-78
2021/12/19 08:55:37;;;;;;;7.83;5.03;;;6.20;99.90;;;4.54;81.13;100187.34;10347789;28;96498;-78
2021/12/19 09:00:40;;;;;;;9.07;5.77;;;6.30;99.90;;;4.67;81.13;100196.84;10380284;28;96837;-78
2021/12/19 09:05:43;;;;;;;7.67;5.30;;;6.40;99.90;;;4.83;80.18;100207.75;10385178;28;96538;-78
2021/12/19 09:10:47;;;;;;;8.20;5.03;;;6.50;99.90;;;4.97;79.65;100188.94;10363081;28;96883;-78
2021/12/19 09:15:50;;;;;;;11.20;6.00;;;6.70;99.90;;;5.12;78.66;100160.47;10366490;28;98077;-77
2021/12/19 09:20:53;;;;;;;6.73;4.50;;;6.80;99.90;;;5.16;78.27;100139.94;10368145;28;96693;-78
2021/12/19 09:25:56;;;;;;;8.70;5.40;;;6.80;99.90;;;5.09;78.19;100140.47;10388858;28;97680;-77
2021/12/19 09:30:59;;;;;;;8.33;4.97;;;6.80;99.90;;;5.14;77.94;100153.25;10378550;27;98746;-77
2021/12/19 09:36:02;;;;;;;9.77;5.70;;;6.80;99.90;;;5.17;77.78;100146.91;10402800;28;96532;-78
2021/12/19 09:41:14;;;;;;;10.07;5.63;;;6.90;99.90;;;5.05;77.72;100139.09;10369259;28;96520;-77
2021/12/19 09:46:21;;;;;;;12.25;6.20;;;6.80;99.90;;;4.97;77.99;100125.75;10354702;28;96562;-77
2021/12/19 09:51:24;;;;;;;32.27;14.77;;;6.70;99.90;;;4.93;77.96;100115.63;10400502;28;96489;-78
2021/12/19 09:56:27;;;;;;;10.07;5.37;;;6.70;99.90;;;4.89;78.16;100114.22;10376937;28;96549;-78
2021/12/19 10:01:31;;;;;;;8.97;4.83;;;6.60;99.90;;;4.95;78.38;100097.91;10399218;28;96495;-78
2021/12/19 10:06:34;;;;;;;7.83;5.30;;;6.60;99.90;;;5.06;77.96;100095.16;10372822;28;96657;-78
2021/12/19 10:11:59;;;;;;;9.00;5.33;;;6.80;99.90;;;5.07;77.02;100089.75;10365635;28;97740;-78
2021/12/19 10:17:07;;;;;;;9.90;6.00;;;6.80;99.90;;;5.01;77.11;100074.50;10385787;28;96679;-78
2021/12/19 10:22:40;;;;;;;9.47;5.50;;;6.80;99.90;;;5.07;77.48;100110.81;10383512;28;96734;-78
2021/12/19 10:27:49;;;;;;;9.30;5.20;;;6.80;99.90;;;5.21;77.08;100079.78;10361471;28;96630;-79
2021/12/19 10:33:02;;;;;;;8.00;4.70;;;6.90;99.90;;;5.36;76.44;100073.16;10377799;28;97613;-79
2021/12/19 10:38:22;;;;;;;9.00;4.83;;;7.10;99.90;;;5.42;75.93;100077.06;10389316;28;98086;-78
2021/12/19 10:43:30;;;;;;;7.23;5.07;;;7.10;99.90;;;5.41;75.84;100078.84;10388978;28;96626;-78
2021/12/19 10:48:40;;;;;;;9.77;5.67;;;7.10;99.90;;;5.40;75.30;100074.56;10374598;28;96607;-78
2021/12/19 10:54:00;;;;;;;10.07;5.90;;;7.10;99.90;;;5.34;75.28;100085.66;10404881;28;96673;-79
2021/12/19 10:59:07;;;;;;;9.87;6.23;;;7.10;99.90;;;5.25;75.38;100081.19;10397981;28;96677;-79
2021/12/19 11:04:12;;;;;;;9.93;5.37;;;7.00;99.90;;;5.21;75.51;100071.88;10392076;28;96550;-79
2021/12/19 11:09:21;;;;;;;11.30;5.90;;;7.00;99.90;;;5.22;75.50;100078.84;10383466;28;96888;-78
2021/12/19 11:14:33;;;;;;;10.90;5.87;;;7.00;99.90;;;5.18;75.67;100067.72;10372136;28;96665;-79
2021/12/19 11:19:39;;;;;;;9.83;6.40;;;6.90;99.90;;;5.14;75.47;100058.44;10405509;28;97277;-79
2021/12/19 11:24:59;;;;;;;9.67;5.10;;;6.90;99.90;;;5.00;75.67;100056.19;10380064;28;96571;-78
2021/12/19 11:30:03;;;;;;;9.10;5.70;;;6.80;99.90;;;4.91;76.13;100057.00;10389043;28;96498;-78
2021/12/19 11:35:14;;;;;;;9.50;5.33;;;6.70;99.90;;;4.83;76.36;100047.13;10411679;28;96725;-79
2021/12/19 11:40:20;;;;;;;10.73;6.13;;;6.60;99.90;;;4.77;76.51;100051.13;10391744;28;98349;-79
2021/12/19 11:50:45;;;;;;;13.30;8.43;;;6.50;99.90;;;4.68;76.88;100041.44;10376741;28;96514;-78
2021/12/19 11:55:53;;;;;;;8.23;4.90;;;6.40;99.90;;;4.59;77.29;100041.38;10391120;28;96599;-78
2021/12/19 12:01:07;;;;;;;7.63;4.90;;;6.40;99.90;;;4.51;77.72;100034.16;10375882;28;96785;-78
2021/12/19 12:06:17;;;;;;;8.57;5.60;;;6.30;99.90;;;4.45;77.99;100038.16;10385349;28;97440;-78
2021/12/19 12:11:20;;;;;;;9.37;5.23;;;6.20;99.90;;;4.44;78.19;100039.13;10397488;28;98413;-79
2021/12/19 12:16:27;;;;;;;10.03;5.40;;;6.20;99.90;;;4.42;78.32;100041.03;10389645;28;96954;-77
2021/12/19 12:26:55;;;;;;;10.33;5.33;;;6.10;99.90;;;4.35;78.80;100007.50;10370766;28;96621;-78
2021/12/19 12:31:58;;;;;;;9.17;5.60;;;6.10;99.90;;;4.33;78.81;99999.75;10373127;28;96608;-78
2021/12/19 12:37:01;;;;;;;9.73;5.60;;;6.10;99.90;;;4.32;78.92;100003.34;10355991;28;96504;-78
2021/12/19 12:42:10;;;;;;;9.70;5.40;;;6.10;99.90;;;4.28;79.12;100008.03;10356433;28;96646;-78
2021/12/19 12:47:16;;;;;;;10.03;5.47;;;6.10;99.90;;;4.29;79.14;99993.09;10362921;28;96592;-78
2021/12/19 12:52:20;;;;;;;10.17;6.13;;;6.10;99.90;;;4.29;79.36;99979.94;10357297;28;97087;-78
2021/12/19 12:57:29;;;;;;;16.47;8.57;;;6.10;99.90;;;4.30;79.49;99984.22;10388460;28;96609;-78
2021/12/19 13:02:42;;;;;;;11.53;7.77;;;6.10;99.90;;;4.34;79.58;99974.28;10376927;28;96628;-78
2021/12/19 13:07:45;;;;;;;9.63;5.43;;;6.10;99.90;;;4.36;79.51;99973.16;10399874;28;96544;-78
2021/12/19 13:12:47;;;;;;;13.50;6.43;;;6.10;99.90;;;4.39;79.65;99980.81;10410611;28;96635;-78
2021/12/19 13:17:52;;;;;;;11.77;6.00;;;6.20;99.90;;;4.40;79.36;99958.78;10412029;28;96673;-78
2021/12/19 13:23:00;;;;;;;9.30;5.70;;;6.20;99.90;;;4.41;79.62;99954.34;10402304;28;96513;-78
2021/12/19 13:28:07;;;;;;;16.00;7.83;;;6.20;99.90;;;4.43;79.66;99952.41;10369907;28;96584;-78
2021/12/19 13:33:18;;;;;;;7.83;5.13;;;6.20;99.90;;;4.43;79.52;99955.03;10359287;28;96769;-78
2021/12/19 13:38:24;;;;;;;10.02;5.57;;;6.20;99.90;;;4.43;79.70;99945.34;10378573;28;97243;-78
2021/12/19 13:43:32;;;;;;;8.80;5.57;;;6.20;99.90;;;4.46;79.80;99941.63;10377990;28;96730;-78
2021/12/19 13:48:54;;;;;;;11.80;7.70;;;6.20;99.90;;;4.46;79.72;99950.34;10390051;28;96846;-78
2021/12/19 13:54:02;;;;;;;8.43;5.23;;;6.20;99.90;;;4.45;80.00;99950.50;10365016;28;96589;-78
2021/12/19 13:59:19;;;;;;;7.20;4.30;;;6.30;99.90;;;4.44;79.80;99926.00;10386904;28;96709;-78
2021/12/19 14:04:24;;;;;;;7.83;4.93;;;6.20;99.90;;;4.43;80.00;99932.19;10396396;28;96929;-78
2021/12/19 14:09:29;;;;;;;17.90;8.87;;;6.20;99.90;;;4.46;79.82;99936.38;10360588;28;96775;-78
2021/12/19 14:14:32;;;;;;;8.20;4.63;;;6.20;99.90;;;4.48;79.41;99931.78;10382825;28;96647;-84
2021/12/19 14:19:53;;;;;;;9.20;4.77;;;6.30;99.90;;;4.50;79.35;99927.25;10364799;28;96730;-79
2021/12/19 14:24:58;;;;;;;6.65;4.15;;;6.30;99.90;;;4.52;79.07;99920.88;10359850;28;96743;-79
2021/12/19 14:30:13;;;;;;;21.07;9.07;;;6.30;99.90;;;4.51;79.16;99919.22;10381370;28;97674;-79
2021/12/19 14:35:27;;;;;;;8.43;4.60;;;6.30;99.90;;;4.52;78.87;99926.13;10346238;28;98125;-79
2021/12/19 14:40:42;;;;;;;7.20;5.13;;;6.30;99.90;;;4.52;78.67;99920.03;10356983;28;96388;-79
2021/12/19 14:45:51;;;;;;;8.37;4.87;;;6.30;99.90;;;4.54;78.84;99924.19;10363720;28;96602;-79
2021/12/19 14:51:05;;;;;;;7.90;4.57;;;6.30;99.90;;;4.53;78.71;99919.06;10364026;28;97214;-79
2021/12/19 14:56:23;;;;;;;8.20;4.37;;;6.30;99.90;;;4.52;78.91;99918.25;10401922;28;96989;-79
2021/12/19 15:01:37;;;;;;;7.07;4.57;;;6.30;99.90;;;4.53;78.92;99909.38;10367166;28;96470;-78
2021/12/19 15:06:43;;;;;;;6.60;4.10;;;6.30;99.90;;;4.54;78.95;99911.03;10370025;28;96563;-78
2021/12/19 15:11:47;;;;;;;10.10;5.73;;;6.30;99.90;;;4.54;79.05;99905.78;10392298;28;96495;-78
2021/12/19 15:16:50;;;;;;;44.07;15.93;;;6.30;99.90;;;4.57;79.08;99907.31;10373668;28;96877;-78
2021/12/19 15:21:53;;;;;;;30.47;12.57;;;6.40;99.90;;;4.59;78.97;99901.91;10378502;28;98023;-79
2021/12/19 15:26:56;;;;;;;25.60;12.63;;;6.40;99.90;;;4.60;79.00;99896.50;10359451;28;96560;-79
2021/12/19 15:31:59;;;;;;;11.40;6.33;;;6.40;99.90;;;4.60;78.69;99885.97;10365462;28;96498;-78
2021/12/19 15:37:01;;;;;;;8.43;5.00;;;6.40;99.90;;;4.62;78.86;99881.41;10376483;28;97712;-79
2021/12/19 15:42:05;;;;;;;11.37;6.07;;;6.40;99.90;;;4.59;78.90;99879.06;10385532;28;96794;-77
2021/12/19 15:47:08;;;;;;;10.93;6.00;;;6.40;99.90;;;4.58;78.94;99882.66;10368918;28;96515;-79
2021/12/19 15:52:11;;;;;;;7.97;5.00;;;6.40;99.90;;;4.57;79.40;99871.31;10386993;28;97333;-80
2021/12/19 15:57:15;;;;;;;9.23;5.20;;;6.40;99.90;;;4.56;79.38;99874.91;10373518;28;96573;-79
2021/12/19 16:02:18;;;;;;;9.20;5.20;;;6.40;99.90;;;4.56;79.25;99869.66;10365282;28;96576;-79
2021/12/19 16:07:21;;;;;;;105.50;38.23;;;6.40;99.90;;;4.57;79.19;99866.03;10341174;28;96883;-79
2021/12/19 16:12:25;;;;;;;26.13;12.83;;;6.30;99.90;;;4.57;79.59;99860.78;10376044;28;96739;-79
2021/12/19 16:17:28;;;;;;;14.57;7.13;;;6.40;99.90;;;4.58;79.06;99848.44;10380810;28;98247;-79
2021/12/19 16:22:31;;;;;;;10.93;7.17;;;6.40;99.90;;;4.61;79.11;99845.53;10402531;28;96430;-79
2021/12/19 16:27:36;;;;;;;8.27;4.50;;;6.40;99.90;;;4.61;78.94;99834.16;10369099;28;96902;-79
2021/12/19 16:32:39;;;;;;;7.67;5.10;;;6.40;99.90;;;4.63;79.05;99845.41;10371927;28;96540;-79
2021/12/19 16:37:42;;;;;;;10.00;4.60;;;6.40;99.90;;;4.64;78.91;99849.69;10377018;28;96441;-79
2021/12/19 16:48:07;;;;;;;7.50;5.18;;;6.50;99.90;;;4.66;78.92;99838.03;10398851;28;96535;-79
2021/12/19 16:53:10;;;;;;;6.60;4.37;;;6.50;99.90;;;4.66;79.04;99848.56;10381707;28;97325;-79
2021/12/19 16:58:13;;;;;;;6.10;4.60;;;6.50;99.90;;;4.68;79.08;99856.31;10383339;28;96467;-79
2021/12/19 17:03:17;;;;;;;6.03;4.37;;;6.50;99.90;;;4.67;79.25;99854.66;10393853;28;97575;-79
2021/12/19 17:08:20;;;;;;;6.77;4.50;;;6.50;99.90;;;4.69;79.01;99855.38;10393888;28;97868;-79
2021/12/19 17:13:29;;;;;;;7.67;4.30;;;6.50;99.90;;;4.70;79.23;99843.88;10366731;28;96820;-78
2021/12/19 17:18:32;;;;;;;8.33;5.50;;;6.50;99.90;;;4.71;79.36;99842.91;10382629;28;96562;-79
2021/12/19 17:23:35;;;;;;;8.43;5.37;;;6.50;99.90;;;4.67;79.38;99834.44;10362343;28;98635;-79
2021/12/19 17:28:38;;;;;;;20.30;9.30;;;6.50;99.90;;;4.65;79.79;99835.56;10354673;28;96817;-79
2021/12/19 17:33:41;;;;;;;11.73;6.93;;;6.50;99.90;;;4.65;79.60;99846.91;10371691;28;98030;-79
2021/12/19 17:38:47;;;;;;;8.67;5.63;;;6.50;99.90;;;4.65;79.33;99843.44;10381100;28;96489;-79
2021/12/19 17:43:52;;;;;;;33.50;15.53;;;6.50;99.90;;;4.67;79.33;99844.13;10391320;28;96563;-79
2021/12/19 17:48:54;;;;;;;22.77;11.67;;;6.50;99.90;;;4.66;79.27;99843.31;10410813;28;96377;-79
2021/12/19 17:53:58;;;;;;;10.13;6.13;;;6.50;99.90;;;4.66;79.38;99847.75;10390072;28;96580;-79
2021/12/19 17:59:03;;;;;;;8.30;5.37;;;6.50;99.90;;;4.64;79.38;99849.69;10371313;28;96965;-80
2021/12/19 18:04:07;;;;;;;10.17;6.13;;;6.50;99.90;;;4.61;79.86;99844.69;10385793;28;96643;-80
2021/12/19 18:09:11;;;;;;;8.90;5.17;;;6.50;99.90;;;4.62;79.42;99835.81;10419906;28;96474;-79
2021/12/19 18:14:15;;;;;;;9.23;5.80;;;6.50;99.90;;;4.65;79.41;99846.09;10368514;28;96506;-80
2021/12/19 18:19:19;;;;;;;10.07;5.87;;;6.50;99.90;;;4.66;79.18;99834.59;10384935;28;96686;-79
2021/12/19 18:24:22;;;;;;;10.43;5.83;;;6.50;99.90;;;4.67;78.73;99833.59;10344111;28;97927;-80
2021/12/19 18:29:25;;;;;;;9.33;5.77;;;6.50;99.90;;;4.66;78.60;99827.50;10365223;28;96654;-79
2021/12/19 18:34:34;;;;;;;8.40;5.53;;;6.50;99.90;;;4.68;78.44;99809.81;10376626;28;96501;-80
2021/12/19 18:39:44;;;;;;;8.03;5.07;;;6.50;99.90;;;4.71;77.98;99808.69;10397558;28;96645;-79
2021/12/19 18:44:55;;;;;;;8.60;5.57;;;6.50;99.90;;;4.74;77.72;99816.31;10373584;28;96609;-79
2021/12/19 18:50:09;;;;;;;7.63;5.20;;;6.50;99.90;;;4.74;77.65;99813.69;10418936;28;96569;-79
2021/12/19 19:00:39;;;;;;;7.63;5.00;;;6.50;99.90;;;4.72;77.76;99799.81;10374028;28;96847;-79
2021/12/19 19:05:45;;;;;;;8.03;5.73;;;6.50;99.90;;;4.71;77.56;99793.72;10378785;28;98743;-79
2021/12/19 19:10:50;;;;;;;5.90;4.53;;;6.50;99.90;;;4.68;77.56;99780.84;10386341;28;98436;-82
2021/12/19 19:15:55;;;;;;;6.33;4.77;;;6.50;99.90;;;4.62;77.27;99783.19;10390936;28;96622;-86
2021/12/19 19:20:58;;;;;;;6.77;4.23;;;6.40;99.90;;;4.54;77.47;99770.75;10356493;28;96786;-84
2021/12/19 19:26:01;;;;;;;21.30;8.40;;;6.40;99.90;;;4.45;77.77;99764.53;10367941;28;96635;-84
2021/12/19 19:31:04;;;;;;;9.27;4.70;;;6.30;99.90;;;4.38;77.79;99781.84;10353215;28;97870;-84
2021/12/19 19:36:09;;;;;;;6.37;4.40;;;6.20;99.90;;;4.37;78.29;99792.47;10388920;28;96809;-78
2021/12/19 19:51:46;;;;;;;26.20;8.57;;;6.20;99.90;;;4.40;79.33;99784.31;10384290;28;96732;-78
2021/12/19 19:56:49;;;;;;;25.00;8.70;;;6.20;99.90;;;4.34;79.91;99779.63;10377606;28;96629;-78
2021/12/19 20:01:57;;;;;;;10.37;5.03;;;6.20;99.90;;;4.29;80.95;99775.59;10361167;27;96550;-78
2021/12/19 20:07:00;;;;;;;7.57;5.03;;;6.10;99.90;;;4.16;82.22;99774.19;10373858;28;96594;-78
2021/12/19 20:12:07;;;;;;;7.20;4.70;;;6.00;99.90;;;4.01;83.10;99781.63;10363950;28;96540;-78
2021/12/19 20:17:11;;;;;;;7.53;5.07;;;5.90;99.90;;;3.84;83.19;99785.78;10349521;28;96392;-78
2021/12/19 20:22:14;;;;;;;7.93;5.50;;;5.70;99.90;;;3.72;83.69;99777.19;10378852;28;96518;-78
2021/12/19 20:27:18;;;;;;;8.80;5.27;;;5.60;99.90;;;3.61;84.37;99776.44;10388220;28;96528;-78
2021/12/19 20:32:22;;;;;;;9.83;5.10;;;5.50;99.90;;;3.53;84.57;99763.97;10352237;28;96661;-77
2021/12/19 20:37:26;;;;;;;9.33;5.00;;;5.40;99.90;;;3.50;84.85;99769.50;10373809;28;98220;-78
2021/12/19 20:42:29;;;;;;;7.23;5.13;;;5.30;99.90;;;3.46;85.12;99765.47;10394135;28;96581;-78
2021/12/19 20:47:32;;;;;;;6.90;4.83;;;5.30;99.90;;;3.41;85.70;99759.75;10379531;28;96646;-78
2021/12/19 20:52:36;;;;;;;7.87;5.50;;;5.30;99.90;;;3.40;86.08;99766.81;10379126;28;96819;-78
2021/12/19 20:57:40;;;;;;;9.43;5.63;;;5.30;99.90;;;3.39;86.53;99761.72;10363852;28;96502;-78
2021/12/19 21:02:45;;;;;;;7.90;4.87;;;5.30;99.90;;;3.34;87.00;99722.69;10375240;28;96665;-78
2021/12/19 21:07:49;;;;;;;9.13;6.07;;;5.20;99.90;;;3.26;87.46;99732.22;10396572;28;96471;-78
2021/12/19 21:12:57;;;;;;;7.13;5.23;;;5.10;99.90;;;3.16;87.87;99740.03;10389773;28;97516;-79
2021/12/19 21:23:22;;;;;;;8.85;6.15;;;4.90;99.90;;;2.89;88.29;99754.56;10388539;28;96854;-79
2021/12/19 21:28:26;;;;;;;10.10;6.43;;;4.80;99.90;;;2.79;88.72;99748.44;10385370;27;96825;-78
2021/12/19 21:33:31;;;;;;;10.93;6.20;;;4.70;99.90;;;2.73;88.64;99738.44;10360155;28;96647;-78
2021/12/19 21:38:46;;;;;;;8.70;5.47;;;4.60;99.90;;;2.69;88.42;99742.28;10393202;28;98406;-78
2021/12/19 21:43:51;;;;;;;9.37;5.87;;;4.60;99.90;;;2.66;88.44;99734.69;10366876;28;99915;-78
2021/12/19 21:48:54;;;;;;;9.13;5.93;;;4.60;99.90;;;2.67;88.28;99726.66;10375434;28;96847;-77
2021/12/19 21:53:57;;;;;;;9.17;5.70;;;4.60;99.90;;;2.70;88.47;99733.47;10388039;28;96572;-77
2021/12/19 21:59:00;;;;;;;8.93;5.63;;;4.50;99.90;;;2.76;88.39;99743.44;10368327;28;97138;-79
2021/12/19 22:04:05;;;;;;;9.33;5.60;;;4.60;99.90;;;2.79;88.90;99739.72;10362994;28;96749;-79
2021/12/19 22:09:08;;;;;;;10.23;5.97;;;4.60;99.90;;;2.79;88.88;99730.06;10379957;28;98424;-80
2021/12/19 22:19:15;;;;;;;10.23;5.60;;;4.60;99.90;;;2.76;89.28;99708.47;10390015;28;96501;-80
2021/12/19 22:24:18;;;;;;;11.77;6.03;;;4.60;99.90;;;2.77;88.92;99703.13;10369329;28;96604;-79
2021/12/19 22:29:21;;;;;;;10.70;6.07;;;4.60;99.90;;;2.76;88.55;99709.34;10373950;28;96556;-78
2021/12/19 22:34:25;;;;;;;9.40;5.20;;;4.60;99.90;;;2.73;88.45;99703.50;10358488;28;96397;-78
2021/12/19 22:39:28;;;;;;;7.73;5.00;;;4.60;99.90;;;2.74;88.33;99711.25;10360812;28;96616;-77
2021/12/19 22:44:31;;;;;;;9.30;5.20;;;4.60;99.90;;;2.73;88.38;99714.84;10381535;28;96587;-81
2021/12/19 22:49:34;;;;;;;7.90;4.97;;;4.60;99.90;;;2.71;88.27;99715.94;10356595;28;96615;-79
2021/12/19 22:54:37;;;;;;;8.47;6.00;;;4.60;99.90;;;2.74;87.86;99713.88;10374800;28;98083;-78
2021/12/19 22:59:40;;;;;;;8.90;5.10;;;4.60;99.90;;;2.73;87.51;99716.63;10380756;28;96663;-78
2021/12/19 23:04:43;;;;;;;8.60;5.50;;;4.60;99.90;;;2.78;87.29;99706.56;10341897;28;96561;-80
2021/12/19 23:09:46;;;;;;;8.10;5.00;;;4.60;99.90;;;2.80;86.99;99702.84;10392915;28;97239;-79